createdAt,value
2022-10-08T00:01:43.299Z,9.13
2022-10-08T00:04:13.054Z,8.40
2022-10-08T00:06:42.045Z,8.77
2022-10-08T00:09:10.393Z,7.83
2022-10-08T00:11:41.203Z,7.43
2022-10-08T00:14:10.198Z,6.77
2022-10-08T00:16:41.595Z,9.33
2022-10-08T00:19:16.324Z,8.20
2022-10-08T00:21:46.784Z,8.63
2022-10-08T00:24:20.005Z,6.40
2022-10-08T00:26:48.605Z,8.67
2022-10-08T00:29:20.860Z,7.87
2022-10-08T00:31:51.367Z,8.90
2022-10-08T00:34:23.121Z,7.73
2022-10-08T00:36:56.106Z,7.23
2022-10-08T00:57:28.759Z,9.73
2022-10-08T01:15:35.098Z,9.33
2022-10-08T01:18:23.601Z,8.13
2022-10-08T01:21:03.323Z,6.33
2022-10-08T01:24:48.457Z,10.83
2022-10-08T01:27:32.869Z,9.50
2022-10-08T01:30:08.811Z,9.53
2022-10-08T01:32:48.836Z,7.83
2022-10-08T01:35:26.202Z,8.50
2022-10-08T01:37:56.961Z,7.33
2022-10-08T01:40:32.410Z,8.27
2022-10-08T01:43:02.204Z,8.60
2022-10-08T01:45:37.388Z,8.00
2022-10-08T01:48:16.403Z,10.63
2022-10-08T01:50:54.825Z,6.83
2022-10-08T01:53:28.011Z,8.20
2022-10-08T01:55:58.007Z,7.37
2022-10-08T01:59:06.104Z,9.67
2022-10-08T02:01:44.651Z,7.23
2022-10-08T02:04:30.714Z,8.60
2022-10-08T02:07:02.141Z,10.70
2022-10-08T02:09:32.841Z,6.17
2022-10-08T02:12:01.238Z,6.63
2022-10-08T02:14:31.300Z,7.03
2022-10-08T02:17:38.504Z,7.83
2022-10-08T02:20:20.277Z,10.10
2022-10-08T02:22:53.628Z,7.53
2022-10-08T02:25:32.365Z,8.63
2022-10-08T02:28:30.599Z,12.00
2022-10-08T02:31:25.619Z,8.47
2022-10-08T02:34:07.873Z,8.07
2022-10-08T02:36:43.349Z,10.27
2022-10-08T02:39:14.002Z,13.90
2022-10-08T02:41:53.726Z,9.07
2022-10-08T02:44:34.226Z,10.07
2022-10-08T02:47:06.685Z,7.23
2022-10-08T02:49:40.890Z,7.57
2022-10-08T02:52:11.682Z,8.43
2022-10-08T02:54:44.160Z,9.67
2022-10-08T02:57:35.318Z,8.43
2022-10-08T03:00:03.978Z,11.60
2022-10-08T03:02:50.820Z,9.73
2022-10-08T03:05:20.893Z,6.80
2022-10-08T03:07:51.729Z,8.87
2022-10-08T03:10:22.187Z,9.30
2022-10-08T03:12:50.971Z,11.50
2022-10-08T03:15:19.199Z,8.33
2022-10-08T03:17:48.382Z,7.03
2022-10-08T03:20:16.933Z,10.10
2022-10-08T03:22:45.581Z,8.17
2022-10-08T03:25:14.133Z,10.00
2022-10-08T03:27:42.642Z,7.33
2022-10-08T03:30:11.752Z,7.37
2022-10-08T03:32:40.065Z,7.67
2022-10-08T03:35:08.537Z,10.17
2022-10-08T03:37:36.895Z,6.40
2022-10-08T03:40:05.508Z,9.00
2022-10-08T03:42:33.804Z,6.43
2022-10-08T03:45:02.268Z,6.67
2022-10-08T03:47:30.621Z,5.97
2022-10-08T03:49:58.916Z,7.00
2022-10-08T03:52:27.303Z,8.50
2022-10-08T03:54:55.655Z,7.23
2022-10-08T03:57:24.041Z,9.00
2022-10-08T03:59:52.350Z,10.03
2022-10-08T04:02:20.675Z,10.67
2022-10-08T04:04:49.118Z,6.90
2022-10-08T04:07:17.395Z,8.27
2022-10-08T04:09:45.775Z,9.13
2022-10-08T04:12:14.073Z,10.83
2022-10-08T04:14:42.415Z,8.17
2022-10-08T04:17:10.704Z,9.27
2022-10-08T04:19:39.037Z,7.97
2022-10-08T04:22:07.382Z,7.80
2022-10-08T04:24:35.706Z,10.73
2022-10-08T04:27:04.084Z,8.13
2022-10-08T04:29:32.407Z,7.53
2022-10-08T04:32:00.811Z,9.70
2022-10-08T04:34:29.917Z,8.87
2022-10-08T04:36:58.218Z,7.57
2022-10-08T04:39:26.570Z,9.70
2022-10-08T04:41:54.900Z,8.17
2022-10-08T04:44:22.896Z,10.87
2022-10-08T04:46:51.209Z,12.20
2022-10-08T04:49:20.703Z,8.73
2022-10-08T04:51:48.978Z,11.17
2022-10-08T04:54:17.476Z,7.60
2022-10-08T04:56:45.913Z,7.40
2022-10-08T04:59:14.266Z,7.77
2022-10-08T05:01:42.711Z,11.23
2022-10-08T05:04:11.116Z,8.10
2022-10-08T05:06:39.420Z,9.07
2022-10-08T05:09:07.741Z,8.93
2022-10-08T05:11:36.125Z,10.97
2022-10-08T05:14:04.468Z,10.63
2022-10-08T05:16:32.938Z,13.87
2022-10-08T05:19:01.267Z,8.13
2022-10-08T05:21:34.054Z,11.40
2022-10-08T05:24:09.228Z,8.80
2022-10-08T05:26:57.377Z,8.47
2022-10-08T05:29:28.392Z,9.73
2022-10-08T05:31:56.864Z,8.27
2022-10-08T05:34:25.227Z,9.23
2022-10-08T05:36:53.675Z,8.83
2022-10-08T05:39:22.024Z,8.63
2022-10-08T05:41:50.474Z,10.30
2022-10-08T05:44:18.967Z,8.03
2022-10-08T05:46:47.319Z,8.43
2022-10-08T05:49:24.054Z,10.67
2022-10-08T05:51:52.576Z,10.30
2022-10-08T05:54:22.254Z,10.70
2022-10-08T05:56:50.627Z,9.90
2022-10-08T05:59:25.022Z,7.90
2022-10-08T06:01:53.606Z,9.63
2022-10-08T06:04:22.201Z,8.83
2022-10-08T06:06:50.796Z,9.30
2022-10-08T06:09:21.610Z,9.17
2022-10-08T06:11:50.493Z,9.30
2022-10-08T06:14:20.283Z,7.10
2022-10-08T06:16:48.617Z,8.03
2022-10-08T06:19:17.558Z,8.07
2022-10-08T06:21:46.114Z,9.10
2022-10-08T06:24:14.726Z,11.13
2022-10-08T06:26:46.864Z,8.90
2022-10-08T06:29:19.753Z,8.00
2022-10-08T06:31:48.578Z,7.90
2022-10-08T06:34:17.432Z,8.73
2022-10-08T06:36:45.806Z,8.47
2022-10-08T06:39:17.852Z,10.33
2022-10-08T06:41:46.292Z,8.80
2022-10-08T06:44:19.053Z,12.33
2022-10-08T06:46:47.647Z,7.90
2022-10-08T06:49:16.708Z,7.87
2022-10-08T06:51:45.151Z,8.80
2022-10-08T06:54:13.487Z,8.30
2022-10-08T06:56:41.770Z,9.37
2022-10-08T06:59:10.313Z,10.57
2022-10-08T07:01:39.198Z,8.97
2022-10-08T07:04:07.988Z,7.67
2022-10-08T07:06:36.422Z,7.77
2022-10-08T07:09:07.133Z,6.43
2022-10-08T07:11:36.075Z,6.47
2022-10-08T07:14:04.529Z,6.17
2022-10-08T07:16:32.934Z,9.93
2022-10-08T07:19:01.891Z,7.83
2022-10-08T07:21:30.964Z,6.43
2022-10-08T07:24:02.063Z,12.53
2022-10-08T07:26:34.293Z,9.00
2022-10-08T07:29:14.992Z,8.97
2022-10-08T07:31:43.471Z,8.07
2022-10-08T07:34:15.152Z,7.43
2022-10-08T07:36:43.541Z,8.33
2022-10-08T07:39:20.233Z,7.77
2022-10-08T07:41:49.404Z,6.37
2022-10-08T07:44:18.467Z,4.90
2022-10-08T07:46:50.456Z,6.53
2022-10-08T07:49:20.077Z,4.73
2022-10-08T07:51:48.780Z,5.37
2022-10-08T07:54:20.052Z,6.70
2022-10-08T07:56:48.485Z,7.37
2022-10-08T07:59:17.004Z,6.73
2022-10-08T08:01:45.557Z,8.30
2022-10-08T08:04:15.895Z,6.23
2022-10-08T08:06:48.637Z,5.87
2022-10-08T08:09:18.376Z,6.13
2022-10-08T08:11:47.429Z,6.23
2022-10-08T08:14:16.030Z,6.37
2022-10-08T08:16:44.411Z,7.40
2022-10-08T08:19:12.891Z,6.80
2022-10-08T08:21:41.276Z,8.93
2022-10-08T08:24:13.425Z,7.67
2022-10-08T08:26:43.940Z,8.77
2022-10-08T08:29:18.816Z,4.97
2022-10-08T08:31:50.936Z,4.40
2022-10-08T08:34:25.380Z,8.20
2022-10-08T08:36:54.741Z,6.33
2022-10-08T08:39:29.512Z,6.90
2022-10-08T08:42:42.509Z,7.10
2022-10-08T08:45:46.721Z,9.13
2022-10-08T08:48:26.608Z,6.50
2022-10-08T08:50:58.751Z,5.13
2022-10-08T08:53:27.274Z,5.33
2022-10-08T08:55:59.978Z,8.73
2022-10-08T08:59:02.586Z,9.40
2022-10-08T09:01:45.611Z,7.57
2022-10-08T09:04:21.737Z,6.23
2022-10-08T09:06:53.022Z,6.63
2022-10-08T09:09:43.048Z,6.47
2022-10-08T09:12:36.319Z,9.37
2022-10-08T09:15:05.866Z,3.83
2022-10-08T09:17:46.769Z,6.23
2022-10-08T09:20:21.205Z,8.90
2022-10-08T09:22:51.922Z,7.33
2022-10-08T09:25:28.262Z,8.27
2022-10-08T09:28:44.945Z,7.03
2022-10-08T09:31:22.362Z,5.27
2022-10-08T09:34:05.600Z,5.37
2022-10-08T09:36:55.712Z,7.17
2022-10-08T09:39:31.133Z,4.30
2022-10-08T09:42:08.315Z,5.07
2022-10-08T09:44:56.344Z,6.20
2022-10-08T09:47:26.765Z,7.77
2022-10-08T09:50:20.706Z,3.03
2022-10-08T09:52:51.368Z,6.77
2022-10-08T09:55:38.549Z,4.63
2022-10-08T09:58:07.063Z,7.50
2022-10-08T10:00:39.966Z,3.17
2022-10-08T10:03:17.664Z,5.50
2022-10-08T10:06:00.896Z,6.23
2022-10-08T10:09:00.701Z,3.40
2022-10-08T10:11:41.774Z,5.30
2022-10-08T10:14:29.159Z,2.07
2022-10-08T10:17:03.567Z,4.70
2022-10-08T10:19:55.168Z,5.27
2022-10-08T10:22:36.005Z,6.73
2022-10-08T10:25:34.575Z,3.27
2022-10-08T10:28:34.932Z,4.23
2022-10-08T10:31:23.549Z,4.13
2022-10-08T10:34:01.507Z,3.73
2022-10-08T10:36:36.589Z,3.60
2022-10-08T10:39:45.257Z,5.67
2022-10-08T10:42:39.312Z,7.90
2022-10-08T10:45:30.793Z,8.10
2022-10-08T10:47:59.349Z,5.90
2022-10-08T10:50:43.427Z,5.33
2022-10-08T10:53:28.885Z,5.20
2022-10-08T10:56:18.969Z,8.47
2022-10-08T10:59:28.726Z,4.30
2022-10-08T11:02:17.392Z,11.60
2022-10-08T11:05:18.012Z,3.27
2022-10-08T11:08:22.492Z,5.03
2022-10-08T11:11:15.996Z,3.63
2022-10-08T11:14:37.285Z,7.10
2022-10-08T11:17:42.921Z,4.07
2022-10-08T11:21:07.610Z,5.43
2022-10-08T11:24:05.143Z,6.77
2022-10-08T11:26:56.486Z,7.93
2022-10-08T11:29:59.283Z,5.33
2022-10-08T11:32:29.882Z,4.27
2022-10-08T11:35:13.291Z,5.50
2022-10-08T11:38:02.949Z,3.87
2022-10-08T11:40:47.435Z,5.23
2022-10-08T11:43:37.488Z,3.67
2022-10-08T11:46:31.985Z,1.70
2022-10-08T11:49:25.358Z,3.07
2022-10-08T11:51:56.461Z,3.43
2022-10-08T11:54:37.283Z,5.33
2022-10-08T11:57:49.296Z,1.77
2022-10-08T12:00:43.640Z,2.83
2022-10-08T12:03:32.224Z,5.93
2022-10-08T12:06:16.068Z,2.27
2022-10-08T12:08:55.316Z,2.30
2022-10-08T12:11:36.234Z,2.77
2022-10-08T12:14:29.150Z,1.63
2022-10-08T12:16:57.520Z,3.17
2022-10-08T12:19:34.555Z,5.00
2022-10-08T12:22:17.968Z,2.90
2022-10-08T12:24:50.173Z,1.87
2022-10-08T12:27:18.743Z,2.20
2022-10-08T12:30:14.235Z,1.70
2022-10-08T12:32:45.397Z,2.60
2022-10-08T12:35:35.867Z,2.93
2022-10-08T12:38:31.197Z,4.17
2022-10-08T12:41:08.175Z,2.23
2022-10-08T12:43:52.824Z,5.43
2022-10-08T12:46:32.830Z,2.23
2022-10-08T12:49:26.510Z,1.93
2022-10-08T12:52:00.738Z,2.33
2022-10-08T12:54:30.650Z,2.63
2022-10-08T12:56:59.478Z,3.17
2022-10-08T12:59:31.651Z,2.30
2022-10-08T13:02:00.363Z,2.23
2022-10-08T13:04:35.047Z,2.70
2022-10-08T13:07:26.322Z,2.53
2022-10-08T13:10:00.798Z,4.40
2022-10-08T13:12:29.740Z,2.17
2022-10-08T13:15:05.827Z,2.17
2022-10-08T13:17:36.332Z,2.67
2022-10-08T13:20:11.602Z,4.47
2022-10-08T13:22:40.104Z,2.47
2022-10-08T13:25:41.479Z,1.83
2022-10-08T13:28:17.000Z,2.47
2022-10-08T13:30:46.749Z,2.87
2022-10-08T13:33:29.854Z,2.53
2022-10-08T13:36:02.224Z,2.40
2022-10-08T13:38:36.887Z,2.53
2022-10-08T13:41:06.268Z,3.30
2022-10-08T13:43:37.274Z,5.17
2022-10-08T13:46:05.620Z,3.80
2022-10-08T13:48:34.156Z,2.90
2022-10-08T13:51:03.025Z,1.97
2022-10-08T13:53:32.065Z,4.47
2022-10-08T13:56:00.563Z,3.17
2022-10-08T13:58:28.978Z,4.50
2022-10-08T14:00:57.377Z,4.43
2022-10-08T14:03:25.858Z,6.23
2022-10-08T14:05:54.416Z,5.47
2022-10-08T14:08:27.746Z,3.70
2022-10-08T14:10:58.055Z,4.60
2022-10-08T14:13:26.560Z,3.40
2022-10-08T14:15:55.054Z,3.77
2022-10-08T14:18:23.409Z,3.83
2022-10-08T14:20:52.644Z,2.47
2022-10-08T14:23:22.157Z,3.77
2022-10-08T14:25:50.499Z,3.10
2022-10-08T14:28:18.863Z,3.67
2022-10-08T14:30:47.237Z,3.37
2022-10-08T14:33:15.606Z,2.43
2022-10-08T14:35:43.922Z,3.57
2022-10-08T14:38:12.333Z,2.50
2022-10-08T14:40:40.650Z,2.67
2022-10-08T14:43:08.980Z,3.17
2022-10-08T14:45:37.348Z,3.70
2022-10-08T14:48:05.690Z,3.10
2022-10-08T14:50:34.109Z,4.33
2022-10-08T14:53:02.591Z,4.63
2022-10-08T14:55:30.950Z,4.53
2022-10-08T14:57:59.368Z,4.73
2022-10-08T15:00:27.685Z,5.70
2022-10-08T15:02:56.362Z,4.67
2022-10-08T15:05:24.705Z,3.60
2022-10-08T15:07:53.071Z,2.83
2022-10-08T15:10:21.381Z,5.93
2022-10-08T15:12:50.174Z,3.83
2022-10-08T15:15:19.918Z,2.70
2022-10-08T15:17:48.828Z,3.97
2022-10-08T15:20:17.502Z,4.60
2022-10-08T15:22:46.151Z,6.67
2022-10-08T15:25:14.935Z,2.70
2022-10-08T15:27:43.618Z,4.70
2022-10-08T15:30:12.877Z,4.63
2022-10-08T15:32:41.292Z,4.17
2022-10-08T15:35:09.972Z,3.90
2022-10-08T15:37:38.486Z,2.70
2022-10-08T15:40:07.530Z,3.43
2022-10-08T15:42:35.923Z,3.17
2022-10-08T15:45:04.408Z,4.70
2022-10-08T15:47:32.833Z,5.23
2022-10-08T15:50:01.246Z,2.77
2022-10-08T15:52:29.638Z,3.53
2022-10-08T15:54:58.185Z,4.03
2022-10-08T15:57:26.603Z,9.13
2022-10-08T15:59:55.634Z,7.03
2022-10-08T16:02:24.014Z,3.97
2022-10-08T16:04:53.408Z,2.87
2022-10-08T16:07:21.735Z,3.77
2022-10-08T16:09:50.212Z,4.80
2022-10-08T16:12:18.603Z,2.37
2022-10-08T16:14:47.075Z,2.10
2022-10-08T16:17:15.696Z,3.60
2022-10-08T16:19:44.287Z,4.80
2022-10-08T16:22:12.760Z,3.23
2022-10-08T16:24:41.196Z,2.23
2022-10-08T16:27:09.604Z,1.73
2022-10-08T16:29:38.199Z,1.80
2022-10-08T16:32:06.595Z,2.53
2022-10-08T16:34:35.095Z,3.57
2022-10-08T16:37:04.917Z,4.57
2022-10-08T16:39:33.243Z,12.77
2022-10-08T16:42:01.677Z,2.93
2022-10-08T16:44:30.097Z,4.90
2022-10-08T16:46:58.479Z,4.87
2022-10-08T16:49:30.701Z,2.13
2022-10-08T16:52:05.600Z,4.07
2022-10-08T16:54:34.569Z,1.83
2022-10-08T16:57:03.013Z,3.00
2022-10-08T16:59:31.741Z,1.27
2022-10-08T17:02:01.261Z,2.30
2022-10-08T17:04:35.421Z,3.77
2022-10-08T17:07:03.843Z,3.67
2022-10-08T17:09:32.653Z,3.03
2022-10-08T17:12:01.138Z,3.00
2022-10-08T17:14:30.877Z,2.60
2022-10-08T17:16:59.324Z,2.00
2022-10-08T17:19:27.778Z,2.30
2022-10-08T17:21:56.205Z,2.90
2022-10-08T17:24:24.654Z,1.87
2022-10-08T17:26:53.185Z,2.10
2022-10-08T17:29:21.694Z,1.93
2022-10-08T17:31:50.361Z,2.70
2022-10-08T17:34:18.840Z,3.00
2022-10-08T17:36:47.878Z,2.30
2022-10-08T17:39:16.601Z,3.00
2022-10-08T17:41:45.363Z,4.40
2022-10-08T17:44:14.140Z,3.43
2022-10-08T17:46:47.971Z,4.87
2022-10-08T17:49:19.353Z,3.17
2022-10-08T17:51:48.628Z,3.83
2022-10-08T17:54:20.211Z,2.60
2022-10-08T17:56:49.277Z,2.17
2022-10-08T17:59:22.709Z,2.50
2022-10-08T18:01:53.283Z,3.70
2022-10-08T18:04:22.659Z,5.60
2022-10-08T18:06:51.349Z,3.27
2022-10-08T18:09:22.901Z,2.90
2022-10-08T18:11:53.663Z,3.80
2022-10-08T18:14:23.018Z,3.17
2022-10-08T18:16:52.260Z,2.73
2022-10-08T18:19:21.090Z,4.80
2022-10-08T18:21:49.535Z,4.23
2022-10-08T18:24:19.057Z,2.53
2022-10-08T18:26:47.524Z,8.20
2022-10-08T18:29:16.526Z,4.53
2022-10-08T18:31:46.632Z,9.07
2022-10-08T18:34:19.866Z,4.77
2022-10-08T18:36:48.643Z,5.40
2022-10-08T18:39:21.566Z,3.30
2022-10-08T18:41:54.465Z,5.47
2022-10-08T18:44:25.436Z,7.03
2022-10-08T18:46:54.335Z,6.60
2022-10-08T18:49:30.220Z,4.23
2022-10-08T18:52:00.417Z,4.87
2022-10-08T18:54:29.083Z,6.83
2022-10-08T18:57:00.242Z,3.63
2022-10-08T18:59:30.804Z,7.83
2022-10-08T19:02:01.634Z,8.30
2022-10-08T19:04:31.350Z,12.50
2022-10-08T19:06:59.838Z,9.63
2022-10-08T19:09:28.338Z,14.27
2022-10-08T19:11:57.476Z,8.23
2022-10-08T19:14:25.937Z,7.40
2022-10-08T19:16:54.626Z,7.03
2022-10-08T19:19:28.461Z,9.87
2022-10-08T19:22:00.248Z,19.23
2022-10-08T19:24:28.875Z,18.43
2022-10-08T19:26:58.454Z,20.73
2022-10-08T19:29:29.518Z,17.17
2022-10-08T19:31:58.282Z,10.53
2022-10-08T19:34:28.716Z,8.50
2022-10-08T19:36:57.190Z,5.50
2022-10-08T19:39:29.066Z,11.33
2022-10-08T19:41:57.864Z,13.77
2022-10-08T19:44:26.914Z,16.17
2022-10-08T19:46:55.486Z,11.87
2022-10-08T19:49:24.016Z,15.90
2022-10-08T19:51:53.792Z,14.03
2022-10-08T19:54:22.254Z,24.07
2022-10-08T19:56:50.676Z,12.60
2022-10-08T19:59:19.117Z,13.93
2022-10-08T20:01:47.772Z,8.30
2022-10-08T20:04:16.929Z,7.47
2022-10-08T20:06:45.710Z,8.07
2022-10-08T20:09:15.356Z,6.77
2022-10-08T20:11:45.567Z,5.73
2022-10-08T20:14:15.766Z,6.40
2022-10-08T20:16:44.366Z,5.93
2022-10-08T20:19:37.431Z,6.00
2022-10-08T20:22:10.883Z,8.73
2022-10-08T20:24:40.138Z,6.17
2022-10-08T20:27:08.575Z,7.50
2022-10-08T20:29:36.984Z,4.83
2022-10-08T20:32:05.303Z,4.87
2022-10-08T20:34:33.835Z,7.07
2022-10-08T20:37:02.536Z,7.80
2022-10-08T20:39:31.370Z,6.10
2022-10-08T20:42:00.182Z,3.70
2022-10-08T20:44:28.660Z,4.23
2022-10-08T20:46:57.128Z,5.70
2022-10-08T20:49:25.929Z,3.93
2022-10-08T20:51:54.394Z,5.87
2022-10-08T20:54:22.809Z,5.17
2022-10-08T20:56:51.254Z,5.87
2022-10-08T20:59:20.344Z,6.50
2022-10-08T21:01:51.083Z,5.97
2022-10-08T21:04:21.062Z,5.97
2022-10-08T21:06:51.308Z,5.47
2022-10-08T21:09:22.861Z,3.67
2022-10-08T21:11:53.672Z,5.37
2022-10-08T21:14:23.488Z,3.80
2022-10-08T21:16:53.505Z,3.93
2022-10-08T21:19:23.431Z,4.83
2022-10-08T21:21:54.941Z,4.23
2022-10-08T21:24:23.309Z,4.80
2022-10-08T21:26:51.728Z,4.47
2022-10-08T21:29:20.150Z,5.50
2022-10-08T21:31:48.506Z,4.37
2022-10-08T21:34:17.054Z,5.50
2022-10-08T21:36:45.407Z,9.07
2022-10-08T21:39:17.509Z,6.90
2022-10-08T21:41:46.254Z,7.23
2022-10-08T21:44:15.056Z,8.33
2022-10-08T21:46:44.358Z,7.33
2022-10-08T21:49:16.446Z,6.93
2022-10-08T21:51:45.272Z,5.20
2022-10-08T21:54:14.146Z,6.20
2022-10-08T21:56:43.216Z,7.47
2022-10-08T21:59:15.420Z,7.20
2022-10-08T22:01:49.382Z,5.10
2022-10-08T22:04:21.564Z,4.73
2022-10-08T22:06:55.334Z,4.93
2022-10-08T22:09:30.026Z,5.47
2022-10-08T22:12:01.288Z,5.47
2022-10-08T22:14:29.951Z,7.57
2022-10-08T22:16:58.094Z,5.83
2022-10-08T22:19:26.659Z,5.03
2022-10-08T22:21:55.015Z,10.70
2022-10-08T22:24:23.544Z,7.50
2022-10-08T22:26:52.002Z,7.50
2022-10-08T22:29:20.419Z,6.23
2022-10-08T22:31:49.004Z,5.20
2022-10-08T22:34:17.366Z,6.27
2022-10-08T22:36:45.932Z,5.40
2022-10-08T22:39:14.577Z,7.53
2022-10-08T22:41:43.142Z,6.07
2022-10-08T22:44:11.879Z,8.50
2022-10-08T22:46:40.912Z,9.47
2022-10-08T22:49:12.596Z,10.57
2022-10-08T22:51:41.012Z,7.53
2022-10-08T22:54:10.080Z,11.00
2022-10-08T22:56:38.639Z,7.27
2022-10-08T22:59:06.959Z,6.03
2022-10-08T23:01:35.491Z,7.43
2022-10-08T23:04:03.831Z,9.70
2022-10-08T23:06:36.288Z,5.97
2022-10-08T23:09:08.799Z,7.20
2022-10-08T23:11:37.421Z,8.23
2022-10-08T23:14:06.231Z,7.13
2022-10-08T23:16:35.715Z,7.70
2022-10-08T23:19:09.380Z,8.57
2022-10-08T23:21:37.937Z,6.90
2022-10-08T23:24:06.891Z,5.93
2022-10-08T23:26:36.002Z,6.87
2022-10-08T23:29:05.419Z,6.20
2022-10-08T23:31:37.337Z,7.77
2022-10-08T23:34:07.128Z,6.30
2022-10-08T23:36:43.785Z,5.70
2022-10-08T23:39:17.570Z,7.67
2022-10-08T23:41:45.853Z,8.73
2022-10-08T23:44:14.337Z,6.27
2022-10-08T23:46:42.683Z,6.83
2022-10-08T23:49:11.115Z,6.93
2022-10-08T23:51:39.502Z,6.00
2022-10-08T23:54:07.822Z,9.20
2022-10-08T23:56:36.212Z,7.20
2022-10-08T23:59:04.543Z,6.87
